createdAt,value
2022-10-25T00:03:20.916Z,9.18
2022-10-25T00:08:14.881Z,8.63
2022-10-25T00:13:08.927Z,8.60
2022-10-25T00:18:03.252Z,8.68
2022-10-25T00:22:58.390Z,8.27
2022-10-25T00:27:52.282Z,7.85
2022-10-25T00:32:46.167Z,8.65
2022-10-25T00:37:40.221Z,8.00
2022-10-25T00:42:34.386Z,7.93
2022-10-25T00:47:52.053Z,7.57
2022-10-25T00:52:47.385Z,8.13
2022-10-25T00:57:48.053Z,7.97
2022-10-25T01:02:42.112Z,7.75
2022-10-25T01:07:36.057Z,7.55
2022-10-25T01:12:29.712Z,8.32
2022-10-25T01:18:04.440Z,7.53
2022-10-25T01:23:09.673Z,7.47
2022-10-25T01:28:21.045Z,7.63
2022-10-25T01:33:35.391Z,7.43
2022-10-25T01:38:50.200Z,6.68
2022-10-25T01:43:43.329Z,7.00
2022-10-25T01:48:49.142Z,6.82
2022-10-25T01:53:50.648Z,6.40
2022-10-25T01:59:04.309Z,6.75
2022-10-25T02:04:23.260Z,7.22
2022-10-25T02:09:16.207Z,6.75
2022-10-25T02:14:27.641Z,6.88
2022-10-25T02:24:39.489Z,6.10
2022-10-25T02:29:35.705Z,6.05
2022-10-25T02:34:30.238Z,6.28
2022-10-25T02:39:27.885Z,6.63
2022-10-25T02:44:24.982Z,6.30
2022-10-25T02:49:18.932Z,5.97
2022-10-25T02:54:12.177Z,6.07
2022-10-25T02:59:09.049Z,6.25
2022-10-25T03:04:02.384Z,6.28
2022-10-25T03:08:55.604Z,6.15
2022-10-25T03:13:49.653Z,5.90
2022-10-25T03:18:43.256Z,5.60
2022-10-25T03:23:36.187Z,6.20
2022-10-25T03:28:30.738Z,5.47
2022-10-25T03:33:25.541Z,5.65
2022-10-25T03:38:19.507Z,6.05
2022-10-25T03:43:13.493Z,5.40
2022-10-25T03:48:06.167Z,5.38
2022-10-25T03:53:00.113Z,5.28
2022-10-25T03:57:54.100Z,5.50
2022-10-25T04:02:47.704Z,6.07
2022-10-25T04:07:41.043Z,5.70
2022-10-25T04:12:34.472Z,5.88
2022-10-25T04:17:28.204Z,5.22
2022-10-25T04:22:21.526Z,4.70
2022-10-25T04:27:14.970Z,4.93
2022-10-25T04:32:08.460Z,5.10
2022-10-25T04:37:01.361Z,5.50
2022-10-25T04:41:54.886Z,4.55
2022-10-25T04:46:48.998Z,6.00
2022-10-25T04:51:42.257Z,5.55
2022-10-25T04:56:35.188Z,5.57
2022-10-25T05:01:29.062Z,5.25
2022-10-25T05:06:25.927Z,5.65
2022-10-25T05:11:22.221Z,6.00
2022-10-25T05:16:21.618Z,6.38
2022-10-25T05:21:17.022Z,6.25
2022-10-25T05:26:17.107Z,6.70
2022-10-25T05:31:15.483Z,7.40
2022-10-25T05:36:09.877Z,7.90
2022-10-25T05:41:04.037Z,8.57
2022-10-25T05:46:07.284Z,9.93
2022-10-25T05:51:21.392Z,10.68
2022-10-25T05:56:23.958Z,9.60
2022-10-25T06:01:18.845Z,9.95
2022-10-25T06:06:12.917Z,8.73
2022-10-25T06:11:07.607Z,9.63
2022-10-25T06:16:04.500Z,8.88
2022-10-25T06:21:05.664Z,10.90
2022-10-25T06:26:10.295Z,9.90
2022-10-25T06:31:04.570Z,12.43
2022-10-25T06:35:59.678Z,10.82
2022-10-25T06:40:54.231Z,11.68
2022-10-25T06:45:48.592Z,11.98
2022-10-25T06:50:41.863Z,11.13
2022-10-25T06:55:34.909Z,14.48
2022-10-25T07:00:28.758Z,14.20
2022-10-25T07:05:22.868Z,13.52
2022-10-25T07:10:16.789Z,16.08
2022-10-25T07:15:11.232Z,14.55
2022-10-25T07:20:06.852Z,17.95
2022-10-25T07:25:01.041Z,16.65
2022-10-25T07:29:54.347Z,16.85
2022-10-25T07:34:48.844Z,16.67
2022-10-25T07:39:43.194Z,18.10
2022-10-25T07:44:37.311Z,19.00
2022-10-25T07:49:31.062Z,23.20
2022-10-25T07:54:24.024Z,23.67
2022-10-25T07:59:17.548Z,24.33
2022-10-25T08:04:10.918Z,22.63
2022-10-25T08:09:14.424Z,25.98
2022-10-25T08:14:08.696Z,23.88
2022-10-25T08:19:02.713Z,22.05
2022-10-25T08:23:56.191Z,21.83
2022-10-25T08:28:51.992Z,21.60
2022-10-25T08:33:44.416Z,24.00
2022-10-25T08:38:38.714Z,23.13
2022-10-25T08:44:09.241Z,24.40
2022-10-25T08:49:25.020Z,22.27
2022-10-25T08:54:24.821Z,22.10
2022-10-25T08:59:27.038Z,22.97
2022-10-25T09:04:20.944Z,21.67
2022-10-25T09:09:31.198Z,21.48
2022-10-25T09:14:47.936Z,21.40
2022-10-25T09:20:05.651Z,22.20
2022-10-25T09:25:17.144Z,21.73
2022-10-25T09:30:12.802Z,22.40
2022-10-25T09:35:13.081Z,21.67
2022-10-25T09:40:28.647Z,23.23
2022-10-25T09:45:38.472Z,21.58
2022-10-25T09:51:13.908Z,23.83
2022-10-25T09:56:06.963Z,24.23
2022-10-25T10:01:05.263Z,24.90
2022-10-25T10:06:02.196Z,23.77
2022-10-25T10:10:57.651Z,23.95
2022-10-25T10:15:53.046Z,24.38
2022-10-25T10:21:13.015Z,22.75
2022-10-25T10:26:21.212Z,21.92
2022-10-25T10:31:15.129Z,20.90
2022-10-25T10:36:21.013Z,21.73
2022-10-25T10:41:28.118Z,20.77
2022-10-25T10:46:24.088Z,20.77
2022-10-25T10:51:42.919Z,19.90
2022-10-25T10:56:35.393Z,18.33
2022-10-25T11:01:33.503Z,17.50
2022-10-25T11:06:35.295Z,17.92
2022-10-25T11:11:29.080Z,18.40
2022-10-25T11:17:20.022Z,17.48
2022-10-25T11:27:49.591Z,16.17
2022-10-25T11:38:05.260Z,16.67
2022-10-25T11:43:26.737Z,16.38
2022-10-25T11:48:47.418Z,15.68
2022-10-25T11:53:49.545Z,15.55
2022-10-25T11:58:48.094Z,15.02
2022-10-25T12:04:18.837Z,15.55
2022-10-25T12:09:11.928Z,15.55
2022-10-25T12:14:14.549Z,17.00
2022-10-25T12:19:28.030Z,16.85
2022-10-25T12:24:24.532Z,19.80
2022-10-25T12:29:22.933Z,17.52
2022-10-25T12:34:38.774Z,15.75
2022-10-25T12:39:40.395Z,15.52
2022-10-25T12:44:58.135Z,15.93
2022-10-25T12:50:21.859Z,15.23
2022-10-25T12:55:48.851Z,13.55
2022-10-25T13:01:06.483Z,13.05
2022-10-25T13:06:21.621Z,11.60
2022-10-25T13:11:15.329Z,10.93
2022-10-25T13:16:11.424Z,10.85
2022-10-25T13:21:13.376Z,10.10
2022-10-25T13:26:09.448Z,9.63
2022-10-25T13:31:32.117Z,9.63
2022-10-25T13:36:49.723Z,8.48
2022-10-25T13:42:05.153Z,9.77
2022-10-25T13:47:05.772Z,8.38
2022-10-25T13:52:27.044Z,9.43
2022-10-25T13:57:56.719Z,8.43
2022-10-25T14:03:35.472Z,7.40
2022-10-25T14:08:37.051Z,8.88
2022-10-25T14:14:00.647Z,8.02
2022-10-25T14:19:01.197Z,7.00
2022-10-25T14:23:56.684Z,6.43
2022-10-25T14:28:50.121Z,7.80
2022-10-25T14:33:54.656Z,6.80
2022-10-25T14:38:59.005Z,7.20
2022-10-25T14:43:53.318Z,7.20
2022-10-25T14:48:48.566Z,6.10
2022-10-25T14:53:59.639Z,6.32
2022-10-25T14:58:55.107Z,6.25
2022-10-25T15:03:52.040Z,6.38
2022-10-25T15:08:50.711Z,6.32
2022-10-25T15:13:47.732Z,6.35
2022-10-25T15:18:42.427Z,6.03
2022-10-25T15:23:35.440Z,5.75
2022-10-25T15:28:48.542Z,6.47
2022-10-25T15:33:42.564Z,5.43
2022-10-25T15:39:05.314Z,5.53
2022-10-25T15:43:50.865Z,5.82
2022-10-25T15:48:46.517Z,6.40
2022-10-25T15:53:42.347Z,5.55
2022-10-25T15:58:36.087Z,5.82
2022-10-25T16:03:29.161Z,5.28
2022-10-25T16:08:23.070Z,5.88
2022-10-25T16:13:33.300Z,5.85
2022-10-25T16:18:44.673Z,5.57
2022-10-25T16:23:38.450Z,5.22
2022-10-25T16:28:32.143Z,4.80
2022-10-25T16:33:26.134Z,5.00
2022-10-25T16:38:19.861Z,5.30
2022-10-25T16:43:13.701Z,4.78
2022-10-25T16:48:07.423Z,5.47
2022-10-25T16:53:04.689Z,4.90
2022-10-25T16:58:02.042Z,4.47
2022-10-25T17:02:55.258Z,5.18
2022-10-25T17:07:49.133Z,5.35
2022-10-25T17:12:54.713Z,5.18
2022-10-25T17:17:48.806Z,4.65
2022-10-25T17:22:42.805Z,4.55
2022-10-25T17:27:38.840Z,4.68
2022-10-25T17:32:32.541Z,5.00
2022-10-25T17:37:25.045Z,4.13
2022-10-25T17:42:20.365Z,4.60
2022-10-25T17:47:15.474Z,5.05
2022-10-25T17:52:09.790Z,6.38
2022-10-25T17:57:05.724Z,7.38
2022-10-25T18:01:59.189Z,6.13
2022-10-25T18:06:52.666Z,6.97
2022-10-25T18:11:46.940Z,6.88
2022-10-25T18:16:44.884Z,7.00
2022-10-25T18:21:44.365Z,7.78
2022-10-25T18:26:37.601Z,6.70
2022-10-25T18:31:31.775Z,6.65
2022-10-25T18:36:25.484Z,6.90
2022-10-25T18:41:23.499Z,6.32
2022-10-25T18:46:16.699Z,5.85
2022-10-25T18:51:15.189Z,6.05
2022-10-25T18:56:15.002Z,6.60
2022-10-25T19:01:12.735Z,5.63
2022-10-25T19:06:07.606Z,5.78
2022-10-25T19:11:06.073Z,7.07
2022-10-25T19:16:00.320Z,6.97
2022-10-25T19:20:54.420Z,6.63
2022-10-25T19:25:47.394Z,6.75
2022-10-25T19:30:40.646Z,6.18
2022-10-25T19:35:33.971Z,5.78
2022-10-25T19:40:26.696Z,5.93
2022-10-25T19:45:20.791Z,6.75
2022-10-25T19:50:14.929Z,6.10
2022-10-25T19:55:09.817Z,5.28
2022-10-25T20:00:03.865Z,5.40
2022-10-25T20:05:00.251Z,5.55
2022-10-25T20:09:53.957Z,6.00
2022-10-25T20:14:47.903Z,5.43
2022-10-25T20:19:42.529Z,5.13
2022-10-25T20:24:36.439Z,5.35
2022-10-25T20:29:30.676Z,5.25
2022-10-25T20:34:23.984Z,4.85
2022-10-25T20:39:18.229Z,5.43
2022-10-25T20:44:14.131Z,4.85
2022-10-25T20:49:07.660Z,5.20
2022-10-25T20:54:10.050Z,4.80
2022-10-25T20:59:04.715Z,5.07
2022-10-25T21:03:58.144Z,5.03
2022-10-25T21:08:52.423Z,4.18
2022-10-25T21:13:45.785Z,4.07
2022-10-25T21:18:39.558Z,4.22
2022-10-25T21:23:34.008Z,4.97
2022-10-25T21:28:26.953Z,4.47
2022-10-25T21:33:23.813Z,4.82
2022-10-25T21:38:17.655Z,5.53
2022-10-25T21:43:10.714Z,4.38
2022-10-25T21:48:04.894Z,4.43
2022-10-25T21:52:58.449Z,4.68
2022-10-25T21:57:54.423Z,4.20
2022-10-25T22:02:48.353Z,4.25
2022-10-25T22:07:41.802Z,4.30
2022-10-25T22:12:34.873Z,4.28
2022-10-25T22:17:28.699Z,4.53
2022-10-25T22:22:22.935Z,3.88
2022-10-25T22:27:21.051Z,4.53
2022-10-25T22:32:14.115Z,4.53
2022-10-25T22:37:07.985Z,3.80
2022-10-25T22:42:01.949Z,4.28
2022-10-25T22:46:54.902Z,3.80
2022-10-25T22:51:48.691Z,3.90
2022-10-25T22:56:43.224Z,4.28
2022-10-25T23:01:38.424Z,4.43
2022-10-25T23:06:33.985Z,4.55
2022-10-25T23:11:40.486Z,4.47
2022-10-25T23:16:35.385Z,4.93
2022-10-25T23:21:32.788Z,4.38
2022-10-25T23:26:39.032Z,4.88
2022-10-25T23:31:33.750Z,4.82
2022-10-25T23:36:30.485Z,5.05
2022-10-25T23:41:24.416Z,5.25
2022-10-25T23:46:17.849Z,5.53
2022-10-25T23:51:14.393Z,5.75
2022-10-25T23:56:09.903Z,5.40
